Time;durP1;ratioP1;P1;durP2;ratioP2;P2;SDS_P1;SDS_P2;PMS_P1;PMS_P2;Temp;Humidity;BMP_temperature;BMP_pressure;BME280_temperature;BME280_humidity;BME280_pressure;Samples;Min_cycle;Max_cycle;Signal;HPM_P1;HPM_P2
2021/12/24 00:02:00;;;;;;;41.38;19.08;;;7.40;88.40;;;;;;6070979;23;88735;-69
2021/12/24 00:04:27;;;;;;;36.17;18.10;;;7.40;88.20;;;;;;6096913;23;88503;-69
2021/12/24 00:06:54;;;;;;;50.80;20.52;;;7.40;88.30;;;;;;6096738;23;88557;-69
2021/12/24 00:09:26;;;;;;;50.72;20.77;;;7.40;88.10;;;;;;6096023;23;109372;-69
2021/12/24 00:12:00;;;;;;;44.53;21.85;;;7.50;88.10;;;;;;6096838;23;88664;-69
2021/12/24 00:14:29;;;;;;;48.40;20.88;;;7.50;87.80;;;;;;6096735;23;88808;-69
2021/12/24 00:17:01;;;;;;;43.80;21.75;;;7.50;87.90;;;;;;6071182;23;89891;-69
2021/12/24 00:35:40;;;;;;;43.33;20.63;;;7.70;88.70;;;;;;6096525;23;88440;-69
2021/12/24 00:38:10;;;;;;;54.55;22.02;;;7.60;88.60;;;;;;6094902;23;88595;-69
2021/12/24 00:40:42;;;;;;;50.88;22.63;;;7.70;88.90;;;;;;6070206;23;90399;-69
2021/12/24 00:43:09;;;;;;;49.63;20.98;;;7.70;88.80;;;;;;6070540;23;91470;-69
2021/12/24 00:45:40;;;;;;;52.97;21.55;;;7.70;88.60;;;;;;6119433;23;89303;-69
2021/12/24 00:48:10;;;;;;;43.70;20.13;;;7.70;88.50;;;;;;6096761;23;88639;-69
2021/12/24 00:56:15;;;;;;;48.13;21.63;;;7.70;88.70;;;;;;6070188;23;89501;-69
2021/12/24 00:58:43;;;;;;;56.10;21.63;;;7.80;88.70;;;;;;6070318;23;88724;-69
2021/12/24 01:01:13;;;;;;;47.65;19.88;;;7.80;88.50;;;;;;6119382;23;91804;-69
2021/12/24 01:03:41;;;;;;;42.60;19.48;;;7.80;88.40;;;;;;6046172;23;89819;-69
2021/12/24 01:06:08;;;;;;;40.30;20.42;;;7.80;88.50;;;;;;6094845;23;88711;-69
2021/12/24 01:08:35;;;;;;;43.45;20.35;;;7.80;88.50;;;;;;6119596;23;89699;-69
2021/12/24 01:11:05;;;;;;;42.85;18.90;;;7.90;88.50;;;;;;6069933;23;91671;-69
2021/12/24 01:13:33;;;;;;;40.05;17.75;;;7.90;88.50;;;;;;6096988;23;88746;-69
2021/12/24 01:16:12;;;;;;;34.13;17.73;;;7.90;88.40;;;;;;6070138;23;90821;-69
2021/12/24 01:23:49;;;;;;;37.53;17.55;;;8.00;88.30;;;;;;6096807;23;88808;-69
2021/12/24 01:26:32;;;;;;;31.73;17.05;;;8.00;88.20;;;;;;6095175;23;90578;-69
2021/12/24 01:42:54;;;;;;;26.75;14.55;;;8.10;88.20;;;;;;6026104;23;91863;-69
2021/12/24 01:45:33;;;;;;;30.52;14.85;;;8.10;88.10;;;;;;6094456;23;91412;-69
2021/12/24 01:48:07;;;;;;;24.63;14.05;;;8.10;88.10;;;;;;6069502;23;88526;-69
2021/12/24 01:50:37;;;;;;;23.75;13.75;;;8.10;88.10;;;;;;6096623;23;88402;-69
2021/12/24 01:53:06;;;;;;;18.35;11.65;;;8.10;88.10;;;;;;6094316;23;91870;-69
2021/12/24 01:55:36;;;;;;;34.72;15.13;;;8.10;88.40;;;;;;6119521;23;90139;-69
2021/12/24 01:58:04;;;;;;;19.13;11.50;;;8.10;88.40;;;;;;6118206;23;90648;-69
2021/12/24 02:00:36;;;;;;;18.58;12.25;;;8.10;88.30;;;;;;6094190;23;91190;-69
2021/12/24 02:03:05;;;;;;;21.25;10.32;;;8.20;88.40;;;;;;6069387;23;92102;-69
2021/12/24 02:05:33;;;;;;;19.27;11.43;;;8.20;88.50;;;;;;6069450;23;91373;-69
2021/12/24 02:08:02;;;;;;;18.13;10.98;;;8.20;88.40;;;;;;6095557;23;89481;-69
2021/12/24 02:10:29;;;;;;;18.90;10.90;;;8.20;88.50;;;;;;6093774;23;89629;-69
2021/12/24 02:12:57;;;;;;;18.17;10.80;;;8.20;88.50;;;;;;6068978;23;90436;-69
2021/12/24 02:29:00;;;;;;;14.57;9.52;;;8.40;88.40;;;;;;6094753;23;89377;-69
2021/12/24 02:31:27;;;;;;;12.07;8.05;;;8.40;88.40;;;;;;6096338;23;89731;-69
2021/12/24 02:33:54;;;;;;;14.00;8.55;;;8.40;88.40;;;;;;6069968;23;89696;-68
2021/12/24 02:36:22;;;;;;;11.25;8.13;;;8.40;88.30;;;;;;6070113;23;89207;-69
2021/12/24 02:38:50;;;;;;;11.13;7.93;;;8.50;88.60;;;;;;6096163;23;88218;-69
2021/12/24 02:41:18;;;;;;;11.05;7.65;;;8.50;88.50;;;;;;6098585;23;87847;-69
2021/12/24 02:43:45;;;;;;;11.15;7.38;;;8.50;88.50;;;;;;6098221;23;88363;-69
2021/12/24 02:46:23;;;;;;;9.30;7.18;;;8.60;88.60;;;;;;6047224;23;89246;-68
2021/12/24 02:54:14;;;;;;;8.18;6.53;;;8.60;88.20;;;;;;6097847;23;89217;-69
2021/12/24 02:56:51;;;;;;;8.57;6.63;;;8.60;88.10;;;;;;6098107;23;88013;-69
2021/12/24 02:59:24;;;;;;;10.77;7.20;;;8.60;88.10;;;;;;6071627;23;90918;-69
2021/12/24 03:01:56;;;;;;;9.60;5.88;;;8.60;88.10;;;;;;6071920;23;91050;-69
2021/12/24 03:04:23;;;;;;;9.07;6.20;;;8.70;88.10;;;;;;6071742;23;91047;-69
2021/12/24 03:06:52;;;;;;;9.30;6.30;;;8.70;88.00;;;;;;6098438;23;87619;-69
2021/12/24 03:09:21;;;;;;;8.73;6.75;;;8.70;88.00;;;;;;6095179;23;91155;-69
2021/12/24 03:11:50;;;;;;;10.23;6.80;;;8.70;88.20;;;;;;6071486;23;90933;-69
2021/12/24 03:14:19;;;;;;;9.98;6.50;;;8.70;88.20;;;;;;6095729;23;89020;-69
2021/12/24 03:16:55;;;;;;;7.20;5.68;;;8.80;88.10;;;;;;6096886;23;88757;-69
2021/12/24 03:19:27;;;;;;;8.95;6.30;;;8.80;88.10;;;;;;6096004;23;90298;-69
2021/12/24 03:21:59;;;;;;;6.43;5.38;;;8.80;88.10;;;;;;6096320;23;91054;-69
2021/12/24 03:26:53;;;;;;;7.00;5.53;;;8.80;88.40;;;;;;6097844;23;87941;-69
2021/12/24 03:29:21;;;;;;;7.22;5.63;;;8.80;88.40;;;;;;6071046;23;90711;-69
2021/12/24 03:31:48;;;;;;;7.95;5.18;;;8.80;88.30;;;;;;6098201;23;87648;-69
2021/12/24 03:34:17;;;;;;;7.30;5.68;;;8.80;88.40;;;;;;6095538;23;88694;-69
2021/12/24 03:36:45;;;;;;;6.18;4.97;;;8.80;88.40;;;;;;6095735;23;89036;-69
2021/12/24 03:39:15;;;;;;;6.57;5.00;;;8.80;88.40;;;;;;6094806;23;90402;-69
2021/12/24 03:41:43;;;;;;;5.03;4.53;;;8.90;88.40;;;;;;6071329;23;89717;-69
2021/12/24 03:44:12;;;;;;;5.57;4.55;;;8.90;88.70;;;;;;6046959;23;90970;-69
2021/12/24 03:46:53;;;;;;;7.47;4.88;;;8.90;88.70;;;;;;6071485;23;89092;-68
2021/12/24 03:49:54;;;;;;;8.00;5.82;;;8.90;88.70;;;;;;6071370;23;89936;-68
2021/12/24 03:54:57;;;;;;;10.38;6.20;;;9.00;89.70;;;;;;6096305;23;90862;-68
2021/12/24 03:57:40;;;;;;;11.38;5.63;;;9.00;89.10;;;;;;6071884;23;88190;-68
2021/12/24 04:00:27;;;;;;;;;;;9.00;89.30;;;;;;6096727;23;88039;-68
2021/12/24 04:03:13;;;;;;;11.02;6.57;;;9.00;89.40;;;;;;6098870;23;88047;-69
2021/12/24 04:05:44;;;;;;;13.07;7.13;;;9.00;90.10;;;;;;6095426;23;88909;-68
2021/12/24 04:08:23;;;;;;;9.75;7.15;;;9.10;89.70;;;;;;6097551;23;88031;-68
2021/12/24 04:11:10;;;;;;;13.18;7.97;;;9.10;89.70;;;;;;6081214;23;87950;-69
2021/12/24 04:13:39;;;;;;;13.23;7.47;;;9.10;89.90;;;;;;6095931;23;91044;-68
2021/12/24 04:16:08;;;;;;;13.75;7.88;;;9.20;89.60;;;;;;6097509;23;88366;-69
2021/12/24 04:27:06;;;;;;;24.50;11.05;;;9.40;90.00;;;;;;6098003;23;87983;-69
2021/12/24 04:29:33;;;;;;;28.33;11.35;;;9.40;90.00;;;;;;6095167;23;89065;-68
2021/12/24 04:35:15;;;;;;;30.60;12.30;;;9.50;90.10;;;;;;6070835;23;91208;-69
2021/12/24 04:51:33;;;;;;;29.33;13.38;;;9.60;90.30;;;;;;6090334;23;90441;-69
2021/12/24 05:05:03;;;;;;;27.65;13.10;;;9.70;90.50;;;;;;6069164;23;91457;-68
2021/12/24 05:10:24;;;;;;;31.23;15.30;;;9.70;90.50;;;;;;6024467;23;91759;-68
2021/12/24 05:12:51;;;;;;;25.10;13.43;;;9.70;90.50;;;;;;6045003;23;88809;-69
2021/12/24 05:15:27;;;;;;;28.25;13.85;;;9.70;90.50;;;;;;6045235;23;91484;-69
2021/12/24 05:21:42;;;;;;;28.17;15.30;;;9.70;90.40;;;;;;6020653;23;89971;-68
2021/12/24 05:24:16;;;;;;;27.48;13.45;;;9.80;90.50;;;;;;6043201;23;91310;-68
2021/12/24 05:26:49;;;;;;;29.33;13.88;;;9.80;90.50;;;;;;6044918;23;91342;-68
2021/12/24 05:29:17;;;;;;;22.98;13.50;;;9.80;90.40;;;;;;6043974;23;91021;-69
2021/12/24 05:31:45;;;;;;;32.35;15.50;;;9.80;90.50;;;;;;6043812;23;97150;-69
2021/12/24 05:34:16;;;;;;;28.52;14.73;;;9.80;90.50;;;;;;6043172;23;91564;-68
2021/12/24 05:36:43;;;;;;;24.67;14.82;;;9.90;90.50;;;;;;6045029;23;88510;-69
2021/12/24 05:39:11;;;;;;;23.77;14.55;;;9.80;90.50;;;;;;6053380;23;89256;-69
2021/12/24 05:41:39;;;;;;;27.98;15.18;;;9.90;90.40;;;;;;6072452;23;90766;-69
2021/12/24 05:44:09;;;;;;;25.80;14.98;;;9.90;90.30;;;;;;6074783;23;89357;-69
2021/12/24 05:46:38;;;;;;;29.52;15.23;;;9.90;90.30;;;;;;6048178;23;89310;-68
2021/12/24 05:49:15;;;;;;;26.25;16.10;;;9.90;90.20;;;;;;6073259;23;91091;-68
2021/12/24 05:52:01;;;;;;;25.92;14.38;;;10.00;90.20;;;;;;6048607;23;90061;-68
2021/12/24 05:54:34;;;;;;;29.75;16.88;;;10.00;90.10;;;;;;6048037;23;90943;-68
2021/12/24 05:57:01;;;;;;;28.38;15.88;;;10.00;90.10;;;;;;6072570;23;90752;-68
2021/12/24 05:59:28;;;;;;;26.58;15.20;;;10.00;90.10;;;;;;6047817;23;90879;-68
2021/12/24 06:01:55;;;;;;;27.13;16.02;;;10.00;90.10;;;;;;6072780;23;90402;-68
2021/12/24 06:04:22;;;;;;;26.92;14.43;;;10.00;90.00;;;;;;6068123;23;89630;-73
2021/12/24 06:06:49;;;;;;;32.13;18.42;;;10.10;90.00;;;;;;6072717;23;88472;-73
2021/12/24 06:09:16;;;;;;;33.97;18.02;;;10.10;89.90;;;;;;6073161;23;89439;-74
2021/12/24 06:11:43;;;;;;;33.95;16.13;;;10.10;89.80;;;;;;6043737;23;90045;-73
2021/12/24 06:14:12;;;;;;;34.10;17.27;;;10.10;89.50;;;;;;6073119;23;88800;-73
2021/12/24 06:16:47;;;;;;;30.92;17.38;;;10.10;89.60;;;;;;6074446;23;89253;-74
2021/12/24 06:19:16;;;;;;;37.58;17.25;;;10.10;89.60;;;;;;6073233;23;89650;-74
2021/12/24 06:21:44;;;;;;;28.92;15.55;;;10.20;89.30;;;;;;6071717;23;89393;-75
2021/12/24 06:24:12;;;;;;;34.15;15.52;;;10.20;89.10;;;;;;6073390;23;98717;-75
2021/12/24 06:26:39;;;;;;;34.47;16.95;;;10.20;89.10;;;;;;6046794;23;89370;-75
2021/12/24 06:29:06;;;;;;;27.58;15.05;;;10.20;88.90;;;;;;6074316;23;89882;-75
2021/12/24 06:31:33;;;;;;;22.40;14.40;;;10.20;88.70;;;;;;6047277;23;94879;-75
2021/12/24 06:34:00;;;;;;;28.52;14.40;;;10.20;88.60;;;;;;6074056;23;89409;-75
2021/12/24 06:36:30;;;;;;;30.70;14.65;;;10.20;88.40;;;;;;6046703;23;89327;-75
2021/12/24 06:38:57;;;;;;;28.80;14.70;;;10.30;88.30;;;;;;6075550;23;88858;-74
2021/12/24 06:41:24;;;;;;;28.20;14.02;;;10.30;88.00;;;;;;6098402;23;89515;-75
2021/12/24 06:43:51;;;;;;;27.85;14.07;;;10.30;88.10;;;;;;6074930;23;88899;-74
2021/12/24 06:46:18;;;;;;;24.02;13.20;;;10.30;87.80;;;;;;6074751;23;98838;-75
2021/12/24 06:48:45;;;;;;;24.90;12.90;;;10.30;87.60;;;;;;6075204;23;89211;-74
2021/12/24 06:51:12;;;;;;;23.42;12.90;;;10.30;87.80;;;;;;6074283;23;89175;-75
2021/12/24 06:53:39;;;;;;;28.10;13.23;;;10.30;87.70;;;;;;6074556;23;89296;-74
2021/12/24 06:56:07;;;;;;;27.70;12.93;;;10.30;87.70;;;;;;6073920;23;90384;-75
2021/12/24 06:58:39;;;;;;;25.08;11.93;;;10.30;87.90;;;;;;6073355;23;89105;-74
2021/12/24 07:01:06;;;;;;;28.10;12.98;;;10.30;87.90;;;;;;6078921;23;89199;-75
2021/12/24 07:03:34;;;;;;;22.70;11.23;;;10.30;88.10;;;;;;6094875;23;89952;-74
2021/12/24 07:06:01;;;;;;;20.40;11.68;;;10.30;88.10;;;;;;6097051;23;89806;-74
2021/12/24 07:08:27;;;;;;;24.25;12.40;;;10.30;88.10;;;;;;6071581;23;88567;-74
2021/12/24 07:10:54;;;;;;;25.98;11.45;;;10.30;88.30;;;;;;6094618;23;109999;-74
2021/12/24 07:13:21;;;;;;;24.08;11.98;;;10.30;88.30;;;;;;6095702;23;89043;-74
2021/12/24 07:15:48;;;;;;;20.92;11.38;;;10.20;88.20;;;;;;6070914;23;89330;-75
2021/12/24 07:18:15;;;;;;;26.08;11.68;;;10.20;88.20;;;;;;6071351;23;88883;-74
2021/12/24 07:20:42;;;;;;;23.92;10.82;;;10.20;88.30;;;;;;6096629;23;89077;-74
2021/12/24 07:23:09;;;;;;;18.83;9.70;;;10.20;88.20;;;;;;6097120;23;89019;-75
2021/12/24 07:25:37;;;;;;;19.13;9.98;;;10.20;87.90;;;;;;6095575;23;88540;-74
2021/12/24 07:28:04;;;;;;;21.30;9.75;;;10.20;87.70;;;;;;6070799;23;89668;-74
2021/12/24 07:30:32;;;;;;;19.70;9.45;;;10.20;87.80;;;;;;6097403;23;88758;-74
2021/12/24 07:32:59;;;;;;;19.02;8.98;;;10.20;87.70;;;;;;6096851;23;101462;-74
2021/12/24 07:35:26;;;;;;;19.25;8.60;;;10.20;87.80;;;;;;6098098;23;88087;-74
2021/12/24 07:37:53;;;;;;;20.33;9.32;;;10.20;87.70;;;;;;6071820;23;88538;-74
2021/12/24 07:40:20;;;;;;;17.58;8.93;;;10.20;87.60;;;;;;6096151;23;88449;-74
2021/12/24 07:42:47;;;;;;;18.58;9.02;;;10.20;87.90;;;;;;6096076;23;88024;-74
2021/12/24 07:45:16;;;;;;;21.10;8.70;;;10.20;87.70;;;;;;6097925;23;88119;-74
2021/12/24 07:47:44;;;;;;;23.30;8.38;;;10.20;87.80;;;;;;6096492;23;87948;-74
2021/12/24 07:52:56;;;;;;;;;;;10.20;87.90;;;;;;6096680;23;88971;-74
2021/12/24 07:55:23;;;;;;;19.70;8.20;;;10.10;87.80;;;;;;6097360;23;88781;-74
2021/12/24 07:57:51;;;;;;;16.52;8.00;;;10.10;88.10;;;;;;6097431;23;90209;-74
2021/12/24 08:00:22;;;;;;;20.42;8.07;;;10.10;88.00;;;;;;6097948;23;88333;-75
2021/12/24 08:02:50;;;;;;;15.77;7.85;;;10.10;87.80;;;;;;6097927;23;88337;-74
2021/12/24 08:05:19;;;;;;;16.67;7.72;;;10.10;87.90;;;;;;6096209;23;88206;-75
2021/12/24 08:07:46;;;;;;;21.55;8.25;;;10.10;87.90;;;;;;6097463;23;87953;-74
2021/12/24 08:10:13;;;;;;;19.55;8.05;;;10.10;87.70;;;;;;6071302;23;88777;-74
2021/12/24 08:12:40;;;;;;;18.95;7.50;;;10.10;87.60;;;;;;6072242;23;87816;-74
2021/12/24 08:15:08;;;;;;;24.35;8.20;;;10.10;87.60;;;;;;6120785;23;90947;-74
2021/12/24 08:17:36;;;;;;;13.52;6.40;;;10.10;87.70;;;;;;6095508;23;99825;-74
2021/12/24 08:20:06;;;;;;;24.10;7.60;;;10.10;87.80;;;;;;6097215;23;88647;-74
2021/12/24 08:22:35;;;;;;;11.63;6.80;;;10.20;88.00;;;;;;6097956;23;88074;-74
2021/12/24 08:25:05;;;;;;;19.13;7.50;;;10.20;88.00;;;;;;6096009;23;88013;-74
2021/12/24 08:27:35;;;;;;;15.93;7.35;;;10.20;87.90;;;;;;6097832;23;88616;-74
2021/12/24 08:30:06;;;;;;;16.77;6.63;;;10.20;88.10;;;;;;6096985;23;88365;-74
2021/12/24 08:32:37;;;;;;;14.05;7.03;;;10.20;88.30;;;;;;6097598;23;87977;-74
2021/12/24 08:35:06;;;;;;;17.70;7.30;;;10.10;88.40;;;;;;6097497;23;88627;-74
2021/12/24 08:37:33;;;;;;;15.95;7.50;;;10.10;88.60;;;;;;6095702;23;87946;-74
2021/12/24 08:40:01;;;;;;;15.85;7.70;;;10.20;88.70;;;;;;6096689;23;89276;-74
2021/12/24 08:42:28;;;;;;;23.92;8.52;;;10.10;88.30;;;;;;6097630;23;87880;-74
2021/12/24 08:44:55;;;;;;;17.58;6.82;;;10.20;88.20;;;;;;6069766;23;109464;-75
2021/12/24 08:47:22;;;;;;;18.00;7.63;;;10.10;88.30;;;;;;6095670;23;91746;-74
2021/12/24 08:49:49;;;;;;;14.57;7.32;;;10.10;88.20;;;;;;6097622;23;88973;-78
2021/12/24 08:52:16;;;;;;;15.20;7.10;;;10.10;88.70;;;;;;6096077;23;88021;-78
2021/12/24 08:54:43;;;;;;;23.85;7.82;;;10.20;89.20;;;;;;6071733;23;89415;-78
2021/12/24 08:57:10;;;;;;;17.00;7.53;;;10.20;88.60;;;;;;6097207;23;88665;-78
2021/12/24 08:59:37;;;;;;;16.50;7.28;;;10.20;88.60;;;;;;6097702;23;88466;-78
2021/12/24 09:02:04;;;;;;;17.70;6.63;;;10.10;88.10;;;;;;6072011;23;87661;-78
2021/12/24 09:04:31;;;;;;;17.27;7.15;;;10.20;88.50;;;;;;6097404;23;88095;-78
2021/12/24 09:06:58;;;;;;;17.33;7.45;;;10.20;88.20;;;;;;6096697;23;96319;-78
2021/12/24 09:09:27;;;;;;;20.27;7.60;;;10.20;88.30;;;;;;6096927;23;88727;-78
2021/12/24 09:11:54;;;;;;;14.93;6.15;;;10.20;88.10;;;;;;6047134;23;89328;-78
2021/12/24 09:14:22;;;;;;;16.90;6.30;;;10.20;87.90;;;;;;6097510;23;88341;-78
2021/12/24 09:16:49;;;;;;;14.15;5.97;;;10.20;87.60;;;;;;6095908;23;88521;-78
2021/12/24 09:19:22;;;;;;;14.32;6.50;;;10.20;87.50;;;;;;6095526;23;91357;-78
2021/12/24 09:21:49;;;;;;;11.30;6.05;;;10.20;87.80;;;;;;6097489;23;88204;-78
2021/12/24 09:24:18;;;;;;;17.17;6.07;;;10.20;87.50;;;;;;6071848;23;88051;-78
2021/12/24 09:26:45;;;;;;;15.13;6.72;;;10.20;87.50;;;;;;6098064;23;87812;-78
2021/12/24 09:29:12;;;;;;;14.10;5.68;;;10.30;87.30;;;;;;6070433;23;108532;-78
2021/12/24 09:31:39;;;;;;;12.27;5.53;;;10.30;87.40;;;;;;6095911;23;88026;-77
2021/12/24 09:34:06;;;;;;;12.65;5.13;;;10.30;87.50;;;;;;6070870;23;89118;-79
2021/12/24 09:36:34;;;;;;;15.23;6.00;;;10.30;87.50;;;;;;6097457;23;88579;-78
2021/12/24 09:39:03;;;;;;;10.98;5.15;;;10.30;87.40;;;;;;6094969;23;90349;-79
2021/12/24 09:41:30;;;;;;;11.93;4.93;;;10.40;87.20;;;;;;6097466;23;89164;-79
2021/12/24 09:43:59;;;;;;;11.80;5.03;;;10.40;87.20;;;;;;6097038;23;88008;-79
2021/12/24 09:46:27;;;;;;;11.80;5.60;;;10.40;87.10;;;;;;6095746;23;88608;-79
2021/12/24 09:48:55;;;;;;;9.35;4.30;;;10.40;87.20;;;;;;6071325;23;89697;-79
2021/12/24 09:51:26;;;;;;;12.02;5.32;;;10.40;87.20;;;;;;6073241;23;87633;-79
2021/12/24 09:53:55;;;;;;;12.05;4.95;;;10.40;87.10;;;;;;6098708;23;88410;-79
2021/12/24 09:56:24;;;;;;;12.93;5.05;;;10.40;87.50;;;;;;6096938;23;88601;-73
2021/12/24 09:58:51;;;;;;;9.77;5.03;;;10.40;87.40;;;;;;6098020;23;88798;-73
2021/12/24 10:01:40;;;;;;;12.40;5.75;;;10.40;87.20;;;;;;6096427;23;89378;-73
2021/12/24 10:04:17;;;;;;;13.13;5.53;;;10.40;87.30;;;;;;6072329;23;91278;-73
2021/12/24 10:06:53;;;;;;;13.90;5.82;;;10.50;87.40;;;;;;6096897;23;88486;-73
2021/12/24 10:09:27;;;;;;;10.30;5.32;;;10.50;87.20;;;;;;6071969;23;90185;-73
2021/12/24 10:12:00;;;;;;;;;;;10.50;87.10;;;;;;6099195;23;88349;-73
2021/12/24 10:14:59;;;;;;;11.18;4.70;;;10.40;87.00;;;;;;6099830;23;88150;-73
2021/12/24 10:17:32;;;;;;;6.40;3.72;;;10.50;87.20;;;;;;6097471;23;87830;-73
2021/12/24 10:20:09;;;;;;;6.13;4.22;;;10.50;87.40;;;;;;6096831;23;90529;-73
2021/12/24 10:22:52;;;;;;;10.48;4.22;;;10.50;87.20;;;;;;6098688;23;88002;-74
2021/12/24 10:25:28;;;;;;;6.85;3.38;;;10.50;87.00;;;;;;6096449;23;88793;-73
2021/12/24 10:27:55;;;;;;;4.35;2.90;;;10.50;86.70;;;;;;6072877;23;88124;-73
2021/12/24 10:30:31;;;;;;;6.82;2.58;;;10.50;86.80;;;;;;6121461;23;89584;-74
2021/12/24 10:33:08;;;;;;;2.17;1.25;;;10.50;86.60;;;;;;6098655;23;87917;-73
2021/12/24 10:35:35;;;;;;;4.65;1.75;;;10.20;86.40;;;;;;6098670;23;87807;-74
2021/12/24 10:38:09;;;;;;;1.13;1.08;;;9.70;90.20;;;;;;6098310;23;88524;-74
2021/12/24 10:40:36;;;;;;;;;;;9.20;89.80;;;;;;6098988;23;87976;-74
2021/12/24 10:43:03;;;;;;;2.00;1.75;;;8.60;90.40;;;;;;6100359;23;87498;-74
2021/12/24 10:45:32;;;;;;;3.20;2.33;;;8.30;90.70;;;;;;6096845;23;89550;-74
2021/12/24 10:48:16;;;;;;;2.67;2.20;;;8.10;91.30;;;;;;6098458;23;88806;-77
2021/12/24 10:51:04;;;;;;;2.58;2.30;;;7.80;91.40;;;;;;6098005;23;88679;-78
2021/12/24 10:54:06;;;;;;;3.60;2.72;;;7.70;91.50;;;;;;6098457;23;87958;-78
2021/12/24 10:56:33;;;;;;;2.83;1.95;;;7.50;92.10;;;;;;6098557;23;88084;-78
2021/12/24 10:59:01;;;;;;;5.20;3.20;;;7.30;91.60;;;;;;6096445;23;91191;-78
2021/12/24 11:01:28;;;;;;;4.47;3.30;;;7.30;92.00;;;;;;6097604;23;88374;-77
2021/12/24 11:03:55;;;;;;;3.72;3.03;;;7.30;92.30;;;;;;6072606;23;88541;-77
2021/12/24 11:06:30;;;;;;;4.13;3.42;;;7.20;92.50;;;;;;6072109;23;88265;-78
2021/12/24 11:08:58;;;;;;;4.85;2.95;;;7.20;92.40;;;;;;6097184;23;88455;-78
2021/12/24 11:11:35;;;;;;;6.72;3.60;;;7.10;92.40;;;;;;6097828;23;90125;-77
2021/12/24 11:14:03;;;;;;;6.38;3.50;;;7.10;92.60;;;;;;6096715;23;89142;-78
2021/12/24 11:16:33;;;;;;;6.03;3.97;;;7.00;92.30;;;;;;6097486;23;89863;-78
2021/12/24 11:19:03;;;;;;;4.18;3.33;;;6.90;92.40;;;;;;6098352;23;87962;-78
2021/12/24 11:21:32;;;;;;;7.07;4.13;;;6.90;92.60;;;;;;6097636;23;96245;-78
2021/12/24 11:23:59;;;;;;;4.00;3.55;;;7.00;92.70;;;;;;6098217;23;87857;-78
2021/12/24 11:26:29;;;;;;;5.53;3.72;;;7.00;92.50;;;;;;6096376;23;88089;-77
2021/12/24 11:28:57;;;;;;;3.25;2.92;;;7.00;92.60;;;;;;6098084;23;88649;-77
2021/12/24 11:31:30;;;;;;;3.75;3.03;;;7.00;92.30;;;;;;6097321;23;98893;-77
2021/12/24 11:33:58;;;;;;;4.95;3.92;;;7.00;92.20;;;;;;6097013;23;87384;-77
2021/12/24 11:36:27;;;;;;;3.15;2.50;;;7.00;92.60;;;;;;6071292;23;88255;-77
2021/12/24 11:38:57;;;;;;;5.47;4.38;;;7.00;92.00;;;;;;6097096;23;88590;-77
2021/12/24 11:41:29;;;;;;;4.65;3.35;;;7.00;92.40;;;;;;6097283;23;88681;-78
2021/12/24 11:43:56;;;;;;;5.68;3.42;;;7.10;92.60;;;;;;6098252;23;87953;-78
2021/12/24 11:46:26;;;;;;;5.13;3.95;;;7.10;91.90;;;;;;6071482;23;91095;-77
2021/12/24 11:48:54;;;;;;;6.47;4.30;;;7.10;92.30;;;;;;6098002;23;88545;-77
2021/12/24 11:51:21;;;;;;;5.40;4.13;;;7.10;92.90;;;;;;6047975;23;88355;-77
2021/12/24 11:53:51;;;;;;;7.28;4.75;;;7.20;92.70;;;;;;6097995;23;87945;-77
2021/12/24 11:56:21;;;;;;;5.05;4.55;;;7.40;92.60;;;;;;6096089;23;91173;-77
2021/12/24 11:58:51;;;;;;;4.93;3.90;;;7.30;92.20;;;;;;6096649;23;90619;-77
2021/12/24 12:01:20;;;;;;;5.90;4.32;;;7.40;92.10;;;;;;6071569;23;88080;-78
2021/12/24 12:03:51;;;;;;;7.75;5.13;;;7.40;92.20;;;;;;6096287;23;88049;-77
2021/12/24 12:06:24;;;;;;;9.52;5.68;;;7.50;92.10;;;;;;6070394;23;90964;-77
2021/12/24 12:08:57;;;;;;;15.05;6.43;;;7.50;92.20;;;;;;6097905;23;88499;-77
2021/12/24 12:11:29;;;;;;;5.10;4.28;;;7.60;92.20;;;;;;6097189;23;88313;-77
2021/12/24 12:14:13;;;;;;;7.50;4.85;;;7.60;92.20;;;;;;6095948;23;89331;-78
2021/12/24 12:16:58;;;;;;;5.13;4.38;;;7.70;91.90;;;;;;6095708;23;90798;-78
2021/12/24 12:24:58;;;;;;;5.00;3.92;;;7.60;91.30;;;;;;6098350;23;87741;-78
2021/12/24 12:27:33;;;;;;;7.32;5.00;;;7.70;91.60;;;;;;6072030;23;87950;-78
2021/12/24 12:30:25;;;;;;;4.82;3.90;;;7.80;91.80;;;;;;6097874;23;88735;-78
2021/12/24 12:33:16;;;;;;;4.88;4.00;;;7.80;91.00;;;;;;6095678;23;88754;-78
2021/12/24 12:35:54;;;;;;;6.57;4.72;;;7.80;90.70;;;;;;6097472;23;88088;-78
2021/12/24 12:38:33;;;;;;;7.22;4.60;;;7.70;90.80;;;;;;6097442;23;88167;-78
2021/12/24 12:41:37;;;;;;;6.32;4.47;;;7.70;91.10;;;;;;6097840;23;88500;-78
2021/12/24 12:44:11;;;;;;;7.10;5.00;;;7.70;91.20;;;;;;6097745;23;88381;-78
2021/12/24 12:46:41;;;;;;;9.07;5.55;;;7.70;91.10;;;;;;6097424;23;87876;-78
2021/12/24 12:49:19;;;;;;;6.25;4.80;;;7.70;91.40;;;;;;6097429;23;88042;-78
2021/12/24 12:51:55;;;;;;;6.80;4.88;;;7.70;91.30;;;;;;6096065;23;91099;-78
2021/12/24 12:55:02;;;;;;;5.88;4.60;;;7.80;91.10;;;;;;6097852;23;87966;-78
2021/12/24 12:57:29;;;;;;;5.68;4.47;;;7.70;90.90;;;;;;5978210;23;88044;-78
2021/12/24 13:00:08;;;;;;;6.57;4.82;;;7.60;90.50;;;;;;5977882;23;94364;-78
2021/12/24 13:03:17;;;;;;;7.45;5.28;;;7.60;90.70;;;;;;6046289;23;89596;-78
2021/12/24 13:05:43;;;;;;;6.82;5.43;;;7.60;90.60;;;;;;6097523;23;89333;-79
2021/12/24 13:08:13;;;;;;;6.63;5.30;;;7.50;90.90;;;;;;6097502;23;87925;-78
2021/12/24 13:10:52;;;;;;;7.15;5.57;;;7.60;91.10;;;;;;6097306;23;88314;-77
2021/12/24 13:13:19;;;;;;;10.18;6.40;;;7.60;90.70;;;;;;6097342;23;88682;-77
2021/12/24 13:15:47;;;;;;;5.90;5.15;;;7.60;90.40;;;;;;6095621;23;88420;-77
2021/12/24 13:18:27;;;;;;;5.35;4.85;;;7.60;90.10;;;;;;6097773;23;87586;-77
2021/12/24 13:23:37;;;;;;;6.22;4.90;;;7.60;90.30;;;;;;6096981;23;88662;-79
2021/12/24 13:26:10;;;;;;;5.45;4.70;;;7.50;90.30;;;;;;6097270;23;89214;-77
2021/12/24 13:29:06;;;;;;;7.90;6.47;;;7.50;89.90;;;;;;6097330;23;87981;-77
2021/12/24 13:31:34;;;;;;;6.75;4.90;;;7.50;90.40;;;;;;6063407;23;92310;-77
2021/12/24 13:34:00;;;;;;;7.13;5.78;;;7.50;90.30;;;;;;6095687;23;87907;-77
2021/12/24 13:36:29;;;;;;;10.27;6.97;;;7.50;90.70;;;;;;6096723;23;104768;-77
2021/12/24 13:39:26;;;;;;;12.07;9.75;;;7.60;91.00;;;;;;6070941;23;88046;-76
2021/12/24 13:42:03;;;;;;;6.07;5.43;;;7.80;91.00;;;;;;6054103;23;89136;-77
2021/12/24 13:44:33;;;;;;;8.77;6.15;;;7.80;91.10;;;;;;6096091;23;88229;-77
2021/12/24 13:47:16;;;;;;;7.43;6.00;;;7.90;91.10;;;;;;6097327;23;87981;-77
2021/12/24 13:55:25;;;;;;;7.47;6.07;;;8.20;91.00;;;;;;6097449;23;88524;-77
2021/12/24 13:57:54;;;;;;;8.63;5.90;;;8.20;91.00;;;;;;6091100;23;91290;-77
2021/12/24 14:00:23;;;;;;;7.10;5.97;;;8.30;91.00;;;;;;6096706;23;100128;-77
2021/12/24 14:02:55;;;;;;;5.88;5.05;;;8.40;90.70;;;;;;6096937;23;88063;-77
2021/12/24 14:05:23;;;;;;;6.13;5.25;;;8.40;90.70;;;;;;6097272;23;88663;-77
2021/12/24 14:08:12;;;;;;;6.38;5.78;;;8.40;90.60;;;;;;6070691;23;94228;-77
2021/12/24 14:10:40;;;;;;;5.55;4.30;;;8.50;90.50;;;;;;6097642;23;87418;-77
2021/12/24 14:13:20;;;;;;;5.63;4.40;;;8.40;90.50;;;;;;6096490;23;101262;-77
2021/12/24 14:19:19;;;;;;;5.23;4.57;;;8.50;90.20;;;;;;6096039;23;88969;-77
2021/12/24 14:21:46;;;;;;;4.60;4.07;;;8.40;90.00;;;;;;6092414;23;90277;-77
2021/12/24 14:24:20;;;;;;;4.88;4.45;;;8.30;89.80;;;;;;6096748;23;88108;-77
2021/12/24 14:27:00;;;;;;;4.78;4.28;;;8.20;90.00;;;;;;6096505;23;88665;-77
2021/12/24 14:29:27;;;;;;;3.63;3.33;;;8.10;89.30;;;;;;6096678;23;90993;-71
2021/12/24 14:31:58;;;;;;;4.45;4.05;;;8.10;89.40;;;;;;6096455;23;92599;-71
2021/12/24 14:34:33;;;;;;;5.35;4.40;;;8.10;90.10;;;;;;6095041;23;90992;-71
2021/12/24 14:37:03;;;;;;;6.20;5.32;;;8.10;90.20;;;;;;6098087;23;87813;-71
2021/12/24 14:39:52;;;;;;;5.03;4.53;;;8.10;90.10;;;;;;6071467;23;90205;-71
2021/12/24 14:42:25;;;;;;;4.90;3.63;;;8.10;90.10;;;;;;6098227;23;87955;-71
2021/12/24 14:44:56;;;;;;;4.13;3.67;;;8.10;90.10;;;;;;6097310;23;88759;-71
2021/12/24 14:47:25;;;;;;;5.47;3.85;;;8.10;90.20;;;;;;6097986;23;88439;-71
2021/12/24 14:50:01;;;;;;;4.32;3.90;;;8.00;90.10;;;;;;6097660;23;87997;-71
2021/12/24 14:52:28;;;;;;;4.82;3.78;;;8.10;90.20;;;;;;6098287;23;87923;-72
2021/12/24 14:55:13;;;;;;;9.27;4.35;;;8.00;90.30;;;;;;6098049;23;88143;-72
2021/12/24 14:57:57;;;;;;;;;;;8.10;90.20;;;;;;6098691;23;89426;-72
2021/12/24 15:00:36;;;;;;;5.15;4.35;;;8.00;90.60;;;;;;6099676;23;88300;-71
2021/12/24 15:03:06;;;;;;;7.15;6.13;;;8.00;90.40;;;;;;6072607;23;87478;-71
2021/12/24 15:05:48;;;;;;;6.15;5.55;;;8.00;90.40;;;;;;6096335;23;89933;-72
2021/12/24 15:08:24;;;;;;;6.97;6.28;;;8.00;90.40;;;;;;6095846;23;97720;-71
2021/12/24 15:11:05;;;;;;;8.88;7.97;;;8.00;90.20;;;;;;6097504;23;89469;-72
2021/12/24 15:13:32;;;;;;;13.18;11.63;;;8.00;89.60;;;;;;6098543;23;87891;-72
2021/12/24 15:16:03;;;;;;;16.17;12.80;;;7.90;89.00;;;;;;6046777;23;89367;-71